Time;durP1;ratioP1;P1;durP2;ratioP2;P2;SDS_P1;SDS_P2;PMS_P1;PMS_P2;Temp;Humidity;BMP_temperature;BMP_pressure;BME280_temperature;BME280_humidity;BME280_pressure;Samples;Min_cycle;Max_cycle;Signal;HPM_P1;HPM_P2
2021/10/17 00:02:22;;;;;;;6.10;5.50;;;7.50;99.90;7.40;101077.00;;;;4937998;28;109296;-63
2021/10/17 00:04:47;;;;;;;5.67;4.10;;;7.50;99.90;7.40;101078.00;;;;4939472;28;88866;-63
2021/10/17 00:07:14;;;;;;;7.67;4.30;;;7.50;99.90;7.40;101082.00;;;;4939252;28;87810;-63
2021/10/17 00:09:41;;;;;;;8.53;4.57;;;7.50;99.90;7.40;101077.00;;;;4939137;28;88186;-63
2021/10/17 00:12:10;;;;;;;18.20;7.07;;;7.50;99.90;7.40;101078.00;;;;4939875;28;87183;-63
2021/10/17 00:14:36;;;;;;;10.73;4.70;;;7.50;99.90;7.40;101078.00;;;;4938422;28;88004;-64
2021/10/17 00:17:04;;;;;;;8.77;5.73;;;7.50;99.90;7.40;101071.00;;;;4939291;28;87776;-63
2021/10/17 00:19:30;;;;;;;7.33;5.03;;;7.60;99.90;7.40;101064.00;;;;4938309;28;88936;-63
2021/10/17 00:21:55;;;;;;;9.27;5.10;;;7.50;99.90;7.40;101066.00;;;;4938223;28;108121;-63
2021/10/17 00:24:21;;;;;;;11.37;6.07;;;7.50;99.90;7.30;101062.00;;;;4919023;28;116066;-61
2021/10/17 00:26:47;;;;;;;8.60;5.50;;;7.40;99.90;7.30;101064.00;;;;4919646;28;115584;-63
2021/10/17 00:29:13;;;;;;;8.77;5.20;;;7.40;99.90;7.30;101061.00;;;;4937951;28;100395;-63
2021/10/17 00:31:38;;;;;;;7.23;6.17;;;7.40;99.90;7.20;101061.00;;;;4938211;28;108711;-63
2021/10/17 00:34:04;;;;;;;11.30;7.27;;;7.40;99.90;7.20;101056.00;;;;4938112;28;105328;-63
2021/10/17 00:36:33;;;;;;;10.50;6.43;;;7.30;99.90;7.20;101057.00;;;;4938758;28;108722;-63
2021/10/17 00:38:59;;;;;;;10.90;7.53;;;7.30;99.90;7.20;101063.00;;;;4938591;28;87699;-63
2021/10/17 00:41:29;;;;;;;7.23;6.53;;;6.90;99.90;7.20;101053.00;;;;4938286;28;88164;-63
2021/10/17 00:43:55;;;;;;;10.87;6.63;;;7.30;99.90;7.10;101051.00;;;;4937811;28;89489;-62
2021/10/17 00:46:22;;;;;;;8.17;5.53;;;7.30;99.90;7.10;101048.00;;;;4937205;28;118597;-65
2021/10/17 00:48:48;;;;;;;8.87;6.27;;;7.20;99.90;7.10;101054.00;;;;4939066;28;87928;-63
2021/10/17 00:51:15;;;;;;;9.87;6.57;;;7.20;99.90;7.20;101054.00;;;;4938347;28;87818;-63
2021/10/17 00:53:42;;;;;;;12.10;6.33;;;7.40;99.90;7.20;101054.00;;;;4937920;28;88249;-63
2021/10/17 00:56:08;;;;;;;7.13;5.27;;;7.20;99.90;7.20;101060.00;;;;4937616;28;88295;-64
2021/10/17 00:58:34;;;;;;;6.83;5.77;;;7.30;99.90;7.20;101060.00;;;;4938504;28;87964;-64
2021/10/17 01:01:00;;;;;;;8.13;5.60;;;7.30;99.90;7.30;101056.00;;;;4920828;28;87151;-65
2021/10/17 01:03:26;;;;;;;8.77;4.90;;;7.40;99.90;7.30;101055.00;;;;4937782;28;99945;-64
2021/10/17 01:05:53;;;;;;;7.93;5.47;;;7.40;99.90;7.30;101056.00;;;;4937781;28;89301;-64
2021/10/17 01:08:20;;;;;;;13.77;5.20;;;7.40;99.90;7.30;101054.00;;;;4937848;28;88614;-63
2021/10/17 01:10:46;;;;;;;6.63;4.80;;;7.40;99.90;7.30;101047.00;;;;4937871;28;93236;-65
2021/10/17 01:13:20;;;;;;;5.90;4.37;;;7.40;99.90;7.30;101045.00;;;;4938236;28;87853;-63
2021/10/17 01:15:57;;;;;;;9.10;6.17;;;7.50;99.90;7.30;101058.00;;;;4938509;28;87956;-63
2021/10/17 01:18:24;;;;;;;7.10;4.03;;;7.40;99.90;7.30;101057.00;;;;4938180;28;87641;-62
2021/10/17 01:20:51;;;;;;;7.23;5.13;;;7.50;99.90;7.40;101055.00;;;;4919645;28;87851;-65
2021/10/17 01:23:19;;;;;;;11.63;4.73;;;7.50;99.90;7.40;101061.00;;;;4937490;28;89312;-64
2021/10/17 01:25:45;;;;;;;8.57;5.00;;;7.50;99.90;7.40;101054.00;;;;4937968;28;101383;-62
2021/10/17 01:28:12;;;;;;;7.33;5.47;;;7.50;99.90;7.40;101053.00;;;;4937122;28;106314;-63
2021/10/17 01:30:38;;;;;;;13.90;6.00;;;7.50;99.90;7.50;101046.00;;;;4937965;28;90478;-64
2021/10/17 01:33:04;;;;;;;9.47;5.57;;;7.60;99.90;7.50;101047.00;;;;4935951;28;119494;-61
2021/10/17 01:35:30;;;;;;;7.93;5.60;;;7.50;99.90;7.50;101044.00;;;;4937782;28;89796;-63
2021/10/17 01:37:56;;;;;;;7.60;5.00;;;7.60;99.90;7.50;101034.00;;;;4937614;28;92029;-64
2021/10/17 01:40:22;;;;;;;10.27;5.40;;;7.50;99.90;7.50;101029.00;;;;4937324;28;95971;-63
2021/10/17 01:42:48;;;;;;;6.07;4.20;;;7.70;99.90;7.50;101029.00;;;;4937464;28;88554;-64
2021/10/17 01:45:14;;;;;;;6.13;5.30;;;7.60;99.90;7.50;101037.00;;;;4937304;28;87943;-64
2021/10/17 01:47:48;;;;;;;7.97;5.17;;;7.60;99.90;7.50;101033.00;;;;4937590;28;87689;-64
2021/10/17 01:50:14;;;;;;;10.73;4.73;;;7.60;99.90;7.50;101038.00;;;;4937079;28;87066;-63
2021/10/17 01:52:41;;;;;;;7.60;5.93;;;7.60;99.90;7.50;101029.00;;;;4937273;28;88261;-63
2021/10/17 01:55:07;;;;;;;5.90;5.13;;;7.60;99.90;7.60;101028.00;;;;4936050;28;117314;-64
2021/10/17 01:57:33;;;;;;;9.83;5.43;;;7.60;99.90;7.60;101034.00;;;;4937532;28;88622;-63
2021/10/17 01:59:58;;;;;;;6.47;4.37;;;7.60;99.90;7.60;101020.00;;;;4936016;28;108072;-64
2021/10/17 02:02:24;;;;;;;8.07;6.03;;;7.70;99.90;7.60;101031.00;;;;4936317;28;118953;-64
2021/10/17 02:04:50;;;;;;;6.70;5.50;;;7.70;99.90;7.60;101027.00;;;;4936072;28;116633;-63
2021/10/17 02:07:15;;;;;;;9.80;5.63;;;7.70;99.90;7.60;101030.00;;;;4936809;28;87825;-64
2021/10/17 02:09:41;;;;;;;7.33;5.63;;;7.70;99.90;7.60;101029.00;;;;4918039;28;107945;-64
2021/10/17 02:12:07;;;;;;;10.03;4.80;;;7.70;99.90;7.60;101022.00;;;;4937254;28;88034;-64
2021/10/17 02:14:34;;;;;;;10.03;4.63;;;7.60;99.90;7.60;101029.00;;;;4936522;28;117019;-63
2021/10/17 02:17:00;;;;;;;8.13;5.73;;;7.70;99.90;7.60;101018.00;;;;4937797;28;87693;-63
2021/10/17 02:19:26;;;;;;;7.40;5.20;;;7.60;99.90;7.50;101021.00;;;;4936439;28;108376;-64
2021/10/17 02:21:51;;;;;;;11.63;5.20;;;7.60;99.90;7.50;101020.00;;;;4936127;28;89156;-64
2021/10/17 02:24:17;;;;;;;8.97;5.37;;;7.70;99.90;7.50;101009.00;;;;4918791;28;88093;-63
2021/10/17 02:26:43;;;;;;;11.63;5.93;;;7.60;99.90;7.50;101022.00;;;;4935887;28;109258;-63
2021/10/17 02:29:08;;;;;;;7.50;5.37;;;7.60;99.90;7.50;101019.00;;;;4935668;28;108859;-62
2021/10/17 02:31:34;;;;;;;7.70;6.73;;;7.60;99.90;7.50;101018.00;;;;4935669;28;116319;-63
2021/10/17 02:34:00;;;;;;;7.67;5.60;;;7.60;99.90;7.50;101023.00;;;;4936301;28;98672;-63
2021/10/17 02:36:25;;;;;;;10.50;6.13;;;7.60;99.90;7.50;101019.00;;;;4936547;28;103640;-64
2021/10/17 02:38:51;;;;;;;6.67;5.53;;;7.60;99.90;7.50;101021.00;;;;4936671;28;108004;-64
2021/10/17 02:41:17;;;;;;;8.00;5.40;;;7.70;99.90;7.60;101021.00;;;;4935887;28;117840;-64
2021/10/17 02:43:42;;;;;;;7.73;5.67;;;7.60;99.90;7.60;101026.00;;;;4918067;28;98186;-63
2021/10/17 02:46:08;;;;;;;8.60;5.67;;;7.70;99.90;7.60;101022.00;;;;4935867;28;107688;-64
2021/10/17 02:48:34;;;;;;;5.17;4.13;;;7.70;99.90;7.60;101014.00;;;;4936116;28;108446;-63
2021/10/17 02:51:00;;;;;;;7.50;4.90;;;7.70;99.90;7.60;101016.00;;;;4936481;28;88612;-62
2021/10/17 02:53:25;;;;;;;6.20;5.17;;;7.70;99.90;7.60;101014.00;;;;4936789;28;88692;-63
2021/10/17 02:55:51;;;;;;;6.37;4.53;;;7.70;99.90;7.60;101021.00;;;;4936115;28;109309;-63
2021/10/17 02:58:17;;;;;;;8.93;5.33;;;7.70;99.90;7.60;101010.00;;;;4936044;28;108621;-63
2021/10/17 03:00:42;;;;;;;6.37;4.60;;;7.70;99.90;7.70;101011.00;;;;4936161;28;87765;-63
2021/10/17 03:03:08;;;;;;;7.47;4.93;;;7.80;99.90;7.60;101013.00;;;;4936103;28;118030;-63
2021/10/17 03:05:34;;;;;;;5.37;4.57;;;7.70;99.90;7.60;101008.00;;;;4935532;28;111041;-63
2021/10/17 03:08:00;;;;;;;9.77;5.30;;;7.70;99.90;7.60;101010.00;;;;4936133;28;109048;-63
2021/10/17 03:10:25;;;;;;;6.03;5.20;;;7.70;99.90;7.60;101008.00;;;;4936000;28;97343;-63
2021/10/17 03:12:52;;;;;;;7.67;5.13;;;7.70;99.90;7.60;101013.00;;;;4936979;28;88455;-63
2021/10/17 03:15:17;;;;;;;6.17;4.87;;;7.70;99.90;7.60;101009.00;;;;4936299;28;88021;-63
2021/10/17 03:17:43;;;;;;;12.50;5.23;;;7.70;99.90;7.60;101008.00;;;;4936233;28;104883;-63
2021/10/17 03:20:11;;;;;;;8.50;4.87;;;7.70;99.90;7.60;101011.00;;;;4935499;28;117254;-63
2021/10/17 03:22:37;;;;;;;9.00;5.23;;;7.70;99.90;7.60;101007.00;;;;4936184;28;88064;-62
2021/10/17 03:25:04;;;;;;;6.70;4.97;;;7.70;99.90;7.60;101012.00;;;;4936607;28;87726;-63
2021/10/17 03:27:30;;;;;;;7.97;5.97;;;7.70;99.90;7.60;101013.00;;;;4936314;28;91657;-63
2021/10/17 03:29:56;;;;;;;8.23;5.20;;;7.80;99.90;7.60;101008.00;;;;4935252;28;117742;-63
2021/10/17 03:32:22;;;;;;;5.40;4.50;;;7.70;99.90;7.60;101005.00;;;;4935844;28;88397;-63
2021/10/17 03:34:48;;;;;;;7.37;4.90;;;7.70;99.90;7.60;101013.00;;;;4934644;28;110739;-63
2021/10/17 03:37:14;;;;;;;7.73;4.70;;;7.70;99.90;7.60;101008.00;;;;4917457;28;109474;-63
2021/10/17 03:39:39;;;;;;;6.07;5.17;;;7.70;99.90;7.60;101003.00;;;;4935381;28;109204;-63
2021/10/17 03:42:05;;;;;;;8.63;5.43;;;7.70;99.90;7.60;101008.00;;;;4935799;28;87794;-63
2021/10/17 03:44:31;;;;;;;7.30;5.17;;;7.70;99.90;7.50;101002.00;;;;4934644;28;110980;-62
2021/10/17 03:46:56;;;;;;;8.13;4.60;;;7.70;99.90;7.50;101017.00;;;;4936571;28;87579;-63
2021/10/17 03:49:22;;;;;;;8.13;5.40;;;7.60;99.90;7.50;101011.00;;;;4935776;28;88758;-63
2021/10/17 03:51:48;;;;;;;14.23;5.70;;;7.60;99.90;7.50;101001.00;;;;4936174;28;88344;-63
2021/10/17 03:54:13;;;;;;;6.43;4.83;;;8.10;99.90;7.50;101002.00;;;;4935032;28;110594;-63
2021/10/17 03:56:39;;;;;;;7.87;4.83;;;7.60;99.90;7.40;101001.00;;;;4935837;28;108816;-64
2021/10/17 03:59:05;;;;;;;8.40;4.93;;;7.60;99.90;7.40;101001.00;;;;4934834;28;118953;-63
2021/10/17 04:01:30;;;;;;;9.70;5.33;;;7.50;99.90;7.40;101001.00;;;;4934475;28;118648;-62
2021/10/17 04:03:56;;;;;;;8.93;5.70;;;7.50;99.90;7.40;100998.00;;;;4916715;28;109302;-63
2021/10/17 04:06:22;;;;;;;7.83;5.67;;;7.50;99.90;7.40;100997.00;;;;4935407;28;96577;-63
2021/10/17 04:08:48;;;;;;;8.43;4.97;;;7.50;99.90;7.40;100996.00;;;;4934852;28;117996;-63
2021/10/17 04:11:13;;;;;;;8.67;4.83;;;7.40;99.90;7.40;100997.00;;;;4934908;28;118164;-63
2021/10/17 04:13:39;;;;;;;7.17;4.17;;;8.20;99.90;7.40;101001.00;;;;4935108;28;111560;-63
2021/10/17 04:16:06;;;;;;;5.37;4.30;;;7.50;99.90;7.30;101007.00;;;;4936348;28;91182;-63
2021/10/17 04:18:32;;;;;;;9.40;4.80;;;7.50;99.90;7.30;101003.00;;;;4936067;28;88303;-63
2021/10/17 04:20:58;;;;;;;7.40;4.97;;;7.50;99.90;7.30;101003.00;;;;4917015;28;101200;-64
2021/10/17 04:23:25;;;;;;;7.83;5.23;;;7.40;99.90;7.30;101013.00;;;;4934645;28;88799;-64
2021/10/17 04:25:51;;;;;;;7.77;4.43;;;7.40;99.90;7.30;100998.00;;;;4935048;28;92081;-63
2021/10/17 04:28:16;;;;;;;11.30;5.30;;;7.40;99.90;7.30;101005.00;;;;4934491;28;97581;-63
2021/10/17 04:30:42;;;;;;;7.70;4.53;;;7.40;99.90;7.30;101002.00;;;;4935135;28;95214;-62
2021/10/17 04:33:08;;;;;;;8.30;5.17;;;7.40;99.90;7.30;101000.00;;;;4917725;28;111476;-63
2021/10/17 04:35:39;;;;;;;5.30;4.50;;;7.40;99.90;7.30;100996.00;;;;4937590;28;88147;-61
2021/10/17 04:38:07;;;;;;;7.07;4.43;;;7.40;99.90;7.30;100990.00;;;;4937079;28;99883;-63
2021/10/17 04:40:35;;;;;;;4.93;4.43;;;7.40;99.90;7.30;100985.00;;;;4937781;28;88935;-63
2021/10/17 04:43:01;;;;;;;4.50;4.00;;;7.40;99.90;7.30;100989.00;;;;4937640;28;91392;-63
2021/10/17 04:45:27;;;;;;;8.10;5.00;;;7.40;99.90;7.30;100993.00;;;;4937014;28;109356;-63
2021/10/17 04:47:52;;;;;;;5.27;3.87;;;7.40;99.90;7.30;100984.00;;;;4918396;28;88658;-61
2021/10/17 04:50:18;;;;;;;8.83;6.00;;;7.40;99.90;7.30;100995.00;;;;4936761;28;118086;-63
2021/10/17 04:52:45;;;;;;;5.73;4.13;;;7.40;99.90;7.30;100986.00;;;;4919954;28;87964;-63
2021/10/17 04:55:10;;;;;;;4.87;3.87;;;7.40;99.90;7.30;100995.00;;;;4937912;28;88384;-63
2021/10/17 04:57:36;;;;;;;3.90;3.37;;;7.40;99.90;7.30;100985.00;;;;4937305;28;118810;-62
2021/10/17 05:00:07;;;;;;;8.63;4.33;;;7.40;99.90;7.30;100979.00;;;;4937743;28;88595;-62
2021/10/17 05:02:33;;;;;;;5.87;4.37;;;7.40;99.90;7.20;100985.00;;;;4938205;28;87707;-63
2021/10/17 05:04:58;;;;;;;6.67;4.13;;;7.30;99.90;7.20;100980.00;;;;4937863;28;108749;-63
2021/10/17 05:07:24;;;;;;;4.90;3.97;;;7.40;99.90;7.20;100984.00;;;;4936999;28;118164;-62
2021/10/17 05:09:50;;;;;;;4.60;3.83;;;7.30;99.90;7.20;100985.00;;;;4936339;28;118059;-63
2021/10/17 05:12:15;;;;;;;11.20;5.10;;;7.30;99.90;7.20;100992.00;;;;4936883;28;110536;-63
2021/10/17 05:14:41;;;;;;;7.20;4.43;;;7.30;99.90;7.20;100997.00;;;;4936837;28;108568;-63
2021/10/17 05:17:07;;;;;;;8.07;4.50;;;7.30;99.90;7.20;101003.00;;;;4936850;28;119204;-63
2021/10/17 05:19:33;;;;;;;8.13;3.67;;;7.40;99.90;7.20;100997.00;;;;4936322;28;117727;-63
2021/10/17 05:21:58;;;;;;;6.63;4.07;;;7.30;99.90;7.20;101004.00;;;;4937808;28;100659;-63
2021/10/17 05:24:24;;;;;;;4.63;3.70;;;7.40;99.90;7.20;101000.00;;;;4936915;28;108695;-63
2021/10/17 05:26:50;;;;;;;4.83;3.60;;;7.30;99.90;7.20;100995.00;;;;4936904;28;117641;-63
2021/10/17 05:29:15;;;;;;;8.87;3.87;;;7.30;99.90;7.20;101001.00;;;;4937864;28;104894;-64
2021/10/17 05:31:41;;;;;;;4.03;3.43;;;7.40;99.90;7.20;101002.00;;;;4919502;28;93750;-63
2021/10/17 05:34:07;;;;;;;7.30;4.07;;;7.30;99.90;7.30;100996.00;;;;4936705;28;107875;-64
2021/10/17 05:36:34;;;;;;;8.03;4.13;;;7.40;99.90;7.20;100993.00;;;;4936841;28;118473;-63
2021/10/17 05:39:01;;;;;;;3.37;3.03;;;7.40;99.90;7.30;101002.00;;;;4936741;28;89811;-63
2021/10/17 05:41:27;;;;;;;4.43;4.03;;;7.80;99.90;7.30;101007.00;;;;4900284;28;87927;-63
2021/10/17 05:43:52;;;;;;;4.37;3.53;;;7.40;99.90;7.30;101001.00;;;;4933363;28;88221;-63
2021/10/17 05:46:18;;;;;;;9.53;4.43;;;7.30;99.90;7.30;101000.00;;;;4937022;28;88429;-62
2021/10/17 05:48:44;;;;;;;10.97;3.90;;;7.40;99.90;7.30;101011.00;;;;4937077;28;93908;-63
2021/10/17 05:51:10;;;;;;;4.87;3.57;;;7.40;99.90;7.30;101012.00;;;;4937050;28;110048;-63
2021/10/17 05:53:36;;;;;;;6.10;4.50;;;7.40;99.90;7.30;101014.00;;;;4937083;28;92382;-63
2021/10/17 05:56:01;;;;;;;5.60;4.03;;;7.40;99.90;7.30;101010.00;;;;4936337;28;118083;-63
2021/10/17 05:58:27;;;;;;;6.80;4.23;;;7.40;99.90;7.30;101012.00;;;;4936952;28;102122;-63
2021/10/17 06:00:53;;;;;;;4.87;4.00;;;7.40;99.90;7.40;101007.00;;;;4935947;28;102060;-63
2021/10/17 06:03:18;;;;;;;5.30;4.27;;;7.50;99.90;7.40;101022.00;;;;4936517;28;107834;-64
2021/10/17 06:05:44;;;;;;;4.33;3.47;;;7.50;99.90;7.40;101019.00;;;;4936263;28;117428;-63
2021/10/17 06:08:10;;;;;;;5.03;3.60;;;7.50;99.90;7.40;101014.00;;;;4917801;28;101297;-63
2021/10/17 06:10:35;;;;;;;4.30;3.90;;;7.50;99.90;7.40;101016.00;;;;4936281;28;109979;-64
2021/10/17 06:13:01;;;;;;;5.33;3.67;;;8.30;99.90;7.40;101009.00;;;;4934947;28;106930;-63
2021/10/17 06:15:27;;;;;;;4.90;3.20;;;7.50;99.90;7.40;101017.00;;;;4930501;28;87988;-63
2021/10/17 06:17:53;;;;;;;7.30;4.30;;;7.50;99.90;7.40;101036.00;;;;4920911;28;88314;-63
2021/10/17 06:20:18;;;;;;;6.63;4.37;;;7.50;99.90;7.40;101024.00;;;;4914636;28;110393;-63
2021/10/17 06:22:44;;;;;;;4.23;3.63;;;7.70;99.90;7.40;101020.00;;;;4924261;28;107882;-61
2021/10/17 06:25:10;;;;;;;4.93;3.60;;;7.50;99.90;7.50;101023.00;;;;4914492;28;102518;-62
2021/10/17 06:27:36;;;;;;;7.73;4.33;;;7.60;99.90;7.50;101033.00;;;;4934020;28;88958;-63
2021/10/17 06:30:02;;;;;;;6.90;4.43;;;7.60;99.90;7.50;101029.00;;;;4932767;28;88154;-63
2021/10/17 06:32:27;;;;;;;3.87;3.23;;;7.60;99.90;7.50;101033.00;;;;4932637;28;91684;-61
2021/10/17 06:34:53;;;;;;;7.67;4.47;;;7.60;99.90;7.60;101023.00;;;;4932071;28;118060;-63
2021/10/17 06:37:19;;;;;;;5.37;4.03;;;7.70;99.90;7.60;101028.00;;;;4933030;28;117719;-63
2021/10/17 06:39:44;;;;;;;4.50;4.10;;;7.60;99.90;7.60;101041.00;;;;4931706;28;110267;-63
2021/10/17 06:42:12;;;;;;;6.40;3.67;;;7.70;99.90;7.70;101031.00;;;;4912185;28;108257;-63
2021/10/17 06:44:38;;;;;;;5.53;4.30;;;7.70;99.90;7.70;101036.00;;;;4918462;28;88642;-64
2021/10/17 06:47:04;;;;;;;7.93;4.23;;;7.80;99.90;7.70;101051.00;;;;4925849;28;117941;-63
2021/10/17 06:49:30;;;;;;;4.97;3.47;;;7.80;99.90;7.70;101042.00;;;;4921009;28;107115;-64
2021/10/17 06:51:55;;;;;;;7.63;4.23;;;7.80;99.90;7.70;101042.00;;;;4916257;28;109462;-63
2021/10/17 06:54:21;;;;;;;7.07;3.93;;;7.80;99.90;7.80;101047.00;;;;4915362;28;114550;-63
2021/10/17 06:56:47;;;;;;;6.00;3.70;;;7.80;99.90;7.80;101055.00;;;;4932391;28;112955;-63
2021/10/17 06:59:14;;;;;;;5.47;3.57;;;7.90;99.90;7.80;101040.00;;;;4933769;28;87779;-63
2021/10/17 07:01:39;;;;;;;5.47;3.40;;;7.90;99.90;7.90;101050.00;;;;4933151;28;87705;-63
2021/10/17 07:04:05;;;;;;;3.23;2.80;;;7.90;99.90;7.90;101045.00;;;;4922090;28;98163;-63
2021/10/17 07:06:31;;;;;;;4.83;3.40;;;7.90;99.90;7.90;101050.00;;;;4924636;28;88991;-63
2021/10/17 07:08:57;;;;;;;4.63;3.13;;;8.00;99.90;8.00;101062.00;;;;4918347;28;87823;-62
2021/10/17 07:11:23;;;;;;;6.67;4.17;;;8.00;99.90;8.00;101047.00;;;;4918261;28;87639;-63
2021/10/17 07:13:48;;;;;;;5.73;3.97;;;8.00;99.90;8.00;101052.00;;;;4912205;28;119368;-64
2021/10/17 07:16:15;;;;;;;5.20;3.77;;;8.00;99.90;8.00;101052.00;;;;4922486;28;118156;-62
2021/10/17 07:18:41;;;;;;;5.17;2.97;;;8.60;99.90;8.00;101049.00;;;;4933223;28;87811;-63
2021/10/17 07:21:07;;;;;;;3.23;2.93;;;8.10;99.90;8.00;101061.00;;;;4933510;28;87879;-63
2021/10/17 07:23:33;;;;;;;6.97;3.10;;;8.10;99.90;8.00;101050.00;;;;4932772;28;90767;-64
2021/10/17 07:25:58;;;;;;;6.10;3.67;;;8.20;99.90;8.10;101037.00;;;;4931972;28;113383;-65
2021/10/17 07:28:24;;;;;;;8.53;3.53;;;8.20;99.90;8.20;101061.00;;;;4931566;28;110441;-63
2021/10/17 07:30:50;;;;;;;6.17;3.90;;;8.20;99.90;8.40;101062.00;;;;4921050;28;87034;-63
2021/10/17 07:33:16;;;;;;;8.03;3.07;;;8.40;99.90;8.60;101055.00;;;;4913120;28;88067;-63
2021/10/17 07:35:42;;;;;;;4.57;3.07;;;8.50;99.90;8.80;101055.00;;;;4922375;28;119620;-63
2021/10/17 07:38:08;;;;;;;3.53;2.80;;;8.70;99.90;9.00;101068.00;;;;4931922;28;108665;-64
2021/10/17 07:40:34;;;;;;;4.60;2.87;;;8.90;99.90;9.10;101058.00;;;;4934947;28;109109;-64
2021/10/17 07:43:00;;;;;;;3.63;2.93;;;9.10;99.90;9.30;101055.00;;;;4931423;28;114361;-62
2021/10/17 07:45:25;;;;;;;4.50;2.70;;;9.30;99.90;9.50;101058.00;;;;4933792;28;88181;-62
2021/10/17 07:47:51;;;;;;;3.40;2.67;;;9.50;99.90;9.60;101060.00;;;;4931246;28;110039;-63
2021/10/17 07:50:17;;;;;;;6.07;2.77;;;9.60;99.90;9.80;101060.00;;;;4931663;28;108722;-63
2021/10/17 07:52:42;;;;;;;3.63;2.77;;;9.80;99.90;10.10;101054.00;;;;4932592;28;88038;-63
2021/10/17 07:55:08;;;;;;;4.83;2.87;;;10.00;99.90;10.40;101060.00;;;;4930368;28;117146;-62
2021/10/17 07:57:46;;;;;;;2.83;2.23;;;10.30;99.90;10.60;101060.00;;;;4913660;28;87790;-62
2021/10/17 08:00:12;;;;;;;3.93;2.57;;;10.60;99.90;10.90;101058.00;;;;4920338;28;87881;-62
2021/10/17 08:02:37;;;;;;;3.90;2.33;;;10.80;99.90;11.10;101065.00;;;;4919933;28;92575;-62
2021/10/17 08:05:04;;;;;;;3.70;1.73;;;11.00;99.90;11.40;101058.00;;;;4926076;28;117391;-63
2021/10/17 08:07:29;;;;;;;3.67;2.47;;;11.30;99.90;11.60;101066.00;;;;4935789;28;87703;-63
2021/10/17 08:09:55;;;;;;;5.13;2.73;;;11.60;99.90;11.80;101065.00;;;;4934999;28;107932;-64
2021/10/17 08:12:21;;;;;;;3.83;2.13;;;11.80;99.90;12.00;101064.00;;;;4935778;28;88144;-64
2021/10/17 08:14:46;;;;;;;7.07;2.30;;;11.90;99.90;12.30;101071.00;;;;4901294;28;116164;-63
2021/10/17 08:17:12;;;;;;;2.73;1.53;;;12.20;99.90;12.50;101061.00;;;;4918978;28;111120;-63
2021/10/17 08:19:37;;;;;;;4.47;2.47;;;12.40;99.90;12.60;101066.00;;;;4921447;28;109313;-63
2021/10/17 08:22:03;;;;;;;6.37;1.97;;;12.50;99.90;12.80;101057.00;;;;4915601;28;118823;-62
2021/10/17 08:24:29;;;;;;;3.17;1.70;;;12.70;99.90;12.90;101060.00;;;;4924361;28;117906;-62
2021/10/17 08:26:54;;;;;;;4.70;2.13;;;12.80;99.90;13.00;101071.00;;;;4929333;28;96177;-62
2021/10/17 08:29:20;;;;;;;3.30;2.17;;;12.90;99.90;13.00;101058.00;;;;4918390;28;108233;-63
2021/10/17 08:31:46;;;;;;;4.47;1.83;;;13.00;99.90;13.10;101070.00;;;;4933851;28;117596;-64
2021/10/17 08:34:12;;;;;;;3.73;1.57;;;13.90;99.90;13.30;101072.00;;;;4916306;28;101505;-63
2021/10/17 08:36:38;;;;;;;3.40;2.00;;;13.30;99.90;13.40;101073.00;;;;4920955;28;88011;-63
2021/10/17 08:39:04;;;;;;;3.20;1.77;;;13.40;99.00;13.60;101083.00;;;;4915420;28;108702;-64
2021/10/17 08:41:30;;;;;;;5.30;1.47;;;13.50;97.80;13.70;101071.00;;;;4921185;28;118555;-62
2021/10/17 08:43:55;;;;;;;1.10;1.00;;;13.60;97.80;13.70;101078.00;;;;4915286;28;106370;-63
2021/10/17 08:46:21;;;;;;;2.77;1.90;;;13.70;97.10;13.80;101072.00;;;;4924515;28;110152;-63
2021/10/17 08:48:54;;;;;;;3.97;1.60;;;13.70;97.00;13.90;101083.00;;;;4932755;28;87872;-64
2021/10/17 08:51:23;;;;;;;3.83;1.83;;;13.90;94.80;14.10;101077.00;;;;4935213;28;88712;-63
2021/10/17 08:53:49;;;;;;;1.73;1.50;;;14.00;94.80;14.30;101081.00;;;;4934569;28;89186;-62
2021/10/17 08:56:15;;;;;;;1.60;1.33;;;14.10;94.80;14.50;101080.00;;;;4934197;28;109476;-63
2021/10/17 08:58:41;;;;;;;3.07;1.90;;;14.40;93.60;14.70;101078.00;;;;4914961;28;87870;-63
2021/10/17 09:01:18;;;;;;;6.63;1.63;;;14.60;92.30;15.00;101085.00;;;;4926696;28;119037;-63
2021/10/17 09:03:55;;;;;;;5.53;1.20;;;14.80;90.10;15.00;101083.00;;;;4919579;28;87841;-62
2021/10/17 09:06:26;;;;;;;2.13;1.27;;;14.90;85.00;15.00;101082.00;;;;4914916;28;87859;-64
2021/10/17 09:09:11;;;;;;;3.60;1.67;;;15.00;84.30;15.10;101073.00;;;;4915716;28;86910;-63
2021/10/17 09:11:49;;;;;;;2.70;1.70;;;15.00;84.70;15.10;101079.00;;;;4915316;28;87843;-63
2021/10/17 09:14:17;;;;;;;1.87;1.43;;;15.10;81.90;15.00;101077.00;;;;4914806;28;87820;-64
2021/10/17 09:16:47;;;;;;;7.03;3.13;;;15.00;82.10;15.00;101084.00;;;;4915772;28;88605;-62
2021/10/17 09:19:29;;;;;;;2.40;1.17;;;15.00;84.90;15.00;101086.00;;;;4915562;28;87877;-63
2021/10/17 09:22:28;;;;;;;4.43;1.83;;;15.00;86.00;15.00;101085.00;;;;4916138;28;88485;-63
2021/10/17 09:24:54;;;;;;;3.70;1.50;;;15.00;86.00;15.10;101085.00;;;;4915159;28;87937;-63
2021/10/17 09:27:23;;;;;;;2.53;1.73;;;15.00;86.50;15.20;101072.00;;;;4929490;28;87609;-62
2021/10/17 09:29:54;;;;;;;3.20;1.70;;;15.10;86.80;15.20;101075.00;;;;4934306;28;87660;-64
2021/10/17 09:32:25;;;;;;;6.70;1.90;;;15.20;82.80;15.30;101075.00;;;;4933935;28;101749;-63
2021/10/17 09:35:03;;;;;;;1.23;1.13;;;15.20;80.70;15.40;101062.00;;;;4933781;28;88366;-63
2021/10/17 09:37:39;;;;;;;3.87;1.90;;;15.30;80.00;15.60;101063.00;;;;4934325;28;87929;-62
2021/10/17 09:40:18;;;;;;;2.88;1.40;;;15.50;77.80;15.80;101071.00;;;;4934739;28;87835;-64
2021/10/17 09:43:33;;;;;;;1.55;1.00;;;15.60;78.50;16.10;101059.00;;;;4933358;28;89337;-63
2021/10/17 09:46:11;;;;;;;2.58;1.83;;;15.90;78.30;16.20;101062.00;;;;4934388;28;89561;-63
2021/10/17 09:48:37;;;;;;;4.43;1.20;;;16.10;71.60;16.30;101063.00;;;;4934343;28;87982;-61
2021/10/17 09:51:09;;;;;;;5.30;1.63;;;16.10;71.10;16.30;101069.00;;;;4934101;28;87754;-63
2021/10/17 09:53:57;;;;;;;4.60;1.52;;;16.20;70.60;16.50;101067.00;;;;4933675;28;88868;-60
2021/10/17 09:56:40;;;;;;;1.42;1.17;;;16.40;69.10;16.60;101056.00;;;;4914097;28;87486;-63
2021/10/17 09:59:12;;;;;;;4.75;1.65;;;16.50;63.90;16.70;101058.00;;;;4914595;28;87858;-62
2021/10/17 10:01:40;;;;;;;1.65;1.10;;;16.60;64.20;16.90;101067.00;;;;4914833;28;86899;-65
2021/10/17 10:04:10;;;;;;;5.00;1.45;;;16.70;66.00;17.20;101048.00;;;;4933511;28;88187;-66
2021/10/17 10:06:36;;;;;;;1.92;1.35;;;17.00;62.60;17.40;101064.00;;;;4933918;28;102054;-66
2021/10/17 10:09:06;;;;;;;2.40;1.48;;;17.20;62.00;17.50;101059.00;;;;4932446;28;108013;-67
2021/10/17 10:11:32;;;;;;;1.98;1.20;;;17.30;60.90;17.70;101065.00;;;;4903725;28;88238;-65
2021/10/17 10:14:05;;;;;;;2.22;1.40;;;17.50;59.50;17.70;101070.00;;;;4914385;28;88787;-66
2021/10/17 10:16:32;;;;;;;3.70;1.95;;;17.60;59.20;17.80;101067.00;;;;4918105;28;89297;-66
2021/10/17 10:19:06;;;;;;;1.75;0.93;;;17.60;59.30;17.90;101060.00;;;;4914121;28;87798;-66
2021/10/17 10:21:33;;;;;;;4.40;1.45;;;17.70;58.20;17.90;101055.00;;;;4915883;28;88257;-65
2021/10/17 10:24:04;;;;;;;1.35;1.10;;;17.70;57.70;17.90;101060.00;;;;4922814;28;101513;-65
2021/10/17 10:26:32;;;;;;;4.60;1.95;;;17.80;57.70;17.90;101062.00;;;;4902077;28;89340;-67
2021/10/17 10:28:59;;;;;;;2.63;1.02;;;17.80;58.60;18.00;101049.00;;;;4913137;28;94613;-66
2021/10/17 10:31:40;;;;;;;3.22;1.30;;;17.80;58.60;18.20;101061.00;;;;4914417;28;88095;-66
2021/10/17 10:34:21;;;;;;;1.98;1.55;;;18.00;58.00;18.30;101067.00;;;;4910751;28;101875;-66
2021/10/17 10:36:53;;;;;;;5.15;1.95;;;18.10;57.40;18.40;101062.00;;;;4914122;28;88837;-66
2021/10/17 10:39:24;;;;;;;3.92;1.52;;;18.20;57.20;18.60;101071.00;;;;4913385;28;89007;-66
2021/10/17 10:42:01;;;;;;;2.55;1.30;;;18.40;57.90;18.80;101077.00;;;;4914134;28;87990;-65
2021/10/17 10:44:42;;;;;;;5.47;1.33;;;18.60;57.30;19.00;101070.00;;;;4932032;28;88950;-66
2021/10/17 10:47:26;;;;;;;1.67;1.33;;;18.90;57.50;19.20;101067.00;;;;4887514;28;89262;-65
2021/10/17 10:49:57;;;;;;;4.43;1.52;;;18.90;56.80;19.40;101066.00;;;;4895550;28;89135;-66
2021/10/17 10:52:39;;;;;;;2.63;1.20;;;19.10;55.50;19.20;101061.00;;;;4932252;28;87112;-66
2021/10/17 10:55:41;;;;;;;1.70;1.25;;;19.10;53.80;19.10;101068.00;;;;4914158;28;87948;-65
2021/10/17 10:58:27;;;;;;;2.67;1.33;;;19.00;54.60;19.10;101071.00;;;;4914813;28;88089;-64